createdAt,value
2018-05-04T00:00:45.812Z,0.00
2018-05-04T00:01:45.803Z,0.00
2018-05-04T00:02:45.798Z,0.00
2018-05-04T00:03:45.789Z,0.00
2018-05-04T00:04:45.783Z,0.00
2018-05-04T00:05:45.772Z,0.00
2018-05-04T00:06:45.765Z,0.00
2018-05-04T00:07:45.756Z,0.00
2018-05-04T00:08:45.755Z,0.00
2018-05-04T00:09:45.741Z,0.00
2018-05-04T00:10:45.734Z,0.00
2018-05-04T00:11:45.725Z,0.00
2018-05-04T00:12:45.719Z,0.00
2018-05-04T00:13:45.708Z,0.00
2018-05-04T00:14:45.703Z,0.00
2018-05-04T00:15:45.694Z,0.00
2018-05-04T00:16:45.688Z,0.00
2018-05-04T00:17:45.677Z,0.00
2018-05-04T00:18:45.676Z,0.00
2018-05-04T00:19:45.667Z,0.00
2018-05-04T00:20:45.655Z,0.00
2018-05-04T00:21:45.646Z,0.00
2018-05-04T00:22:45.643Z,0.00
2018-05-04T00:23:45.675Z,0.00
2018-05-04T00:24:45.620Z,0.00
2018-05-04T00:25:45.611Z,0.00
2018-05-04T00:26:45.606Z,0.00
2018-05-04T00:27:45.599Z,0.00
2018-05-04T00:28:45.590Z,0.00
2018-05-04T00:29:45.583Z,0.00
2018-05-04T00:30:45.572Z,0.00
2018-05-04T00:31:45.571Z,0.00
2018-05-04T00:32:45.558Z,0.00
2018-05-04T00:33:45.551Z,0.00
2018-05-04T00:34:45.543Z,0.00
2018-05-04T00:35:45.536Z,0.00
2018-05-04T00:36:45.530Z,0.00
2018-05-04T00:37:45.518Z,0.00
2018-05-04T00:38:45.511Z,0.00
2018-05-04T00:39:45.502Z,0.00
2018-05-04T00:40:45.496Z,0.00
2018-05-04T00:41:45.488Z,0.00
2018-05-04T00:42:45.481Z,0.00
2018-05-04T00:43:45.471Z,0.00
2018-05-04T00:44:45.490Z,0.00
2018-05-04T00:45:45.456Z,0.00
2018-05-04T00:46:45.449Z,0.00
2018-05-04T00:47:45.441Z,0.00
2018-05-04T00:48:45.431Z,0.00
2018-05-04T00:49:45.424Z,0.00
2018-05-04T00:50:45.418Z,0.00
2018-05-04T00:51:45.408Z,0.00
2018-05-04T00:52:45.399Z,0.00
2018-05-04T00:53:45.405Z,0.00
2018-05-04T00:54:45.382Z,0.00
2018-05-04T00:55:45.380Z,0.00
2018-05-04T00:56:45.370Z,0.00
2018-05-04T00:57:45.363Z,0.00
2018-05-04T00:58:45.349Z,0.00
2018-05-04T00:59:45.344Z,0.00
2018-05-04T01:00:45.332Z,0.00
2018-05-04T01:01:45.325Z,0.00
2018-05-04T01:02:45.320Z,0.00
2018-05-04T01:03:45.309Z,0.00
2018-05-04T01:04:45.303Z,0.00
2018-05-04T01:05:45.295Z,0.00
2018-05-04T01:06:45.285Z,0.00
2018-05-04T01:07:45.301Z,0.00
2018-05-04T01:08:45.268Z,0.00
2018-05-04T01:09:45.261Z,0.00
2018-05-04T01:10:45.252Z,0.00
2018-05-04T01:11:45.243Z,0.00
2018-05-04T01:12:45.236Z,0.00
2018-05-04T01:13:45.231Z,0.00
2018-05-04T01:14:45.223Z,0.00
2018-05-04T01:15:45.216Z,0.00
2018-05-04T01:16:45.202Z,0.00
2018-05-04T01:17:45.196Z,0.00
2018-05-04T01:18:45.190Z,0.00
2018-05-04T01:19:45.185Z,0.00
2018-05-04T01:20:45.175Z,0.00
2018-05-04T01:21:45.164Z,0.00
2018-05-04T01:22:45.154Z,0.00
2018-05-04T01:23:45.149Z,0.00
2018-05-04T01:24:45.141Z,0.00
2018-05-04T01:25:45.134Z,0.00
2018-05-04T01:26:45.125Z,0.00
2018-05-04T01:27:45.120Z,0.00
2018-05-04T01:28:45.109Z,0.00
2018-05-04T01:29:45.102Z,0.00
2018-05-04T01:30:45.097Z,0.00
2018-05-04T01:31:45.088Z,0.00
2018-05-04T01:32:45.079Z,0.00
2018-05-04T01:33:45.073Z,0.00
2018-05-04T01:34:45.065Z,0.00
2018-05-04T01:35:45.054Z,0.00
2018-05-04T01:36:45.050Z,0.00
2018-05-04T01:37:45.037Z,0.00
2018-05-04T01:38:45.034Z,0.00
2018-05-04T01:39:45.029Z,0.00
2018-05-04T01:40:45.016Z,0.00
2018-05-04T01:41:45.009Z,0.00
2018-05-04T01:42:44.999Z,0.00
2018-05-04T01:43:45.024Z,0.00
2018-05-04T01:44:44.986Z,0.00
2018-05-04T01:45:44.976Z,0.00
2018-05-04T01:46:44.967Z,0.00
2018-05-04T01:47:44.958Z,0.00
2018-05-04T01:48:44.953Z,0.00
2018-05-04T01:49:44.942Z,0.00
2018-05-04T01:50:44.935Z,0.00
2018-05-04T01:51:44.932Z,0.00
2018-05-04T01:52:44.921Z,0.00
2018-05-04T01:53:44.911Z,0.00
2018-05-04T01:54:44.904Z,0.00
2018-05-04T01:55:44.897Z,0.00
2018-05-04T01:56:44.888Z,0.00
2018-05-04T01:57:44.882Z,0.00
2018-05-04T01:58:44.875Z,0.00
2018-05-04T01:59:44.866Z,0.00
2018-05-04T02:00:44.862Z,0.00
2018-05-04T02:01:44.852Z,0.00
2018-05-04T02:02:44.837Z,0.00
2018-05-04T02:03:44.830Z,0.00
2018-05-04T02:04:44.826Z,0.00
2018-05-04T02:05:44.817Z,0.00
2018-05-04T02:06:44.809Z,0.00
2018-05-04T02:07:44.805Z,0.00
2018-05-04T02:08:44.790Z,0.00
2018-05-04T02:09:44.786Z,0.00
2018-05-04T02:10:44.775Z,0.00
2018-05-04T02:11:44.771Z,0.00
2018-05-04T02:12:44.759Z,0.00
2018-05-04T02:13:44.749Z,0.00
2018-05-04T02:14:44.742Z,0.00
2018-05-04T02:15:44.737Z,0.00
2018-05-04T02:16:44.733Z,0.00
2018-05-04T02:17:44.720Z,0.00
2018-05-04T02:18:44.710Z,0.00
2018-05-04T02:19:44.703Z,0.00
2018-05-04T02:20:44.692Z,0.00
2018-05-04T02:21:44.686Z,0.00
2018-05-04T02:22:44.677Z,0.00
2018-05-04T02:23:44.673Z,0.00
2018-05-04T02:24:44.665Z,0.00
2018-05-04T02:25:44.654Z,0.00
2018-05-04T02:26:44.644Z,0.00
2018-05-04T02:27:44.641Z,0.00
2018-05-04T02:28:44.628Z,0.00
2018-05-04T02:29:44.621Z,0.00
2018-05-04T02:30:44.615Z,0.00
2018-05-04T02:31:44.605Z,0.00
2018-05-04T02:32:44.598Z,0.00
2018-05-04T02:33:44.587Z,0.00
2018-05-04T02:34:44.583Z,0.00
2018-05-04T02:35:44.656Z,0.00
2018-05-04T02:36:44.652Z,0.00
2018-05-04T02:37:44.557Z,0.00
2018-05-04T02:38:44.546Z,0.00
2018-05-04T02:39:44.539Z,0.00
2018-05-04T02:40:44.536Z,0.00
2018-05-04T02:41:44.520Z,0.00
2018-05-04T02:42:44.515Z,0.00
2018-05-04T02:43:44.506Z,0.00
2018-05-04T02:44:44.495Z,0.00
2018-05-04T02:45:44.491Z,0.00
2018-05-04T02:46:44.481Z,0.00
2018-05-04T02:47:44.471Z,0.00
2018-05-04T02:48:44.463Z,0.00
2018-05-04T02:49:44.457Z,0.00
2018-05-04T02:50:44.450Z,0.00
2018-05-04T02:51:44.438Z,0.00
2018-05-04T02:52:44.432Z,0.00
2018-05-04T02:53:44.424Z,0.00
2018-05-04T02:54:44.417Z,0.00
2018-05-04T02:55:44.416Z,0.00
2018-05-04T02:56:44.398Z,0.00
2018-05-04T02:57:44.390Z,0.00
2018-05-04T02:58:44.380Z,0.00
2018-05-04T02:59:44.375Z,0.00
2018-05-04T03:00:44.363Z,0.00
2018-05-04T03:01:44.364Z,0.00
2018-05-04T03:02:44.354Z,0.00
2018-05-04T03:03:44.341Z,0.00
2018-05-04T03:04:44.332Z,0.00
2018-05-04T03:05:44.322Z,0.00
2018-05-04T03:06:44.314Z,0.00
2018-05-04T03:07:44.309Z,0.00
2018-05-04T03:08:44.297Z,0.00
2018-05-04T03:09:44.289Z,0.00
2018-05-04T03:10:44.282Z,0.00
2018-05-04T03:11:44.277Z,0.00
2018-05-04T03:12:44.266Z,0.00
2018-05-04T03:13:44.262Z,0.00
2018-05-04T03:14:44.252Z,0.00
2018-05-04T03:15:44.242Z,0.00
2018-05-04T03:16:44.236Z,0.00
2018-05-04T03:17:44.222Z,0.00
2018-05-04T03:18:44.215Z,0.00
2018-05-04T03:19:44.210Z,0.00
2018-05-04T03:20:44.201Z,0.00
2018-05-04T03:21:44.193Z,0.00
2018-05-04T03:22:44.187Z,0.00
2018-05-04T03:23:44.177Z,0.00
2018-05-04T03:24:44.166Z,0.00
2018-05-04T03:25:44.159Z,0.00
2018-05-04T03:26:44.151Z,0.00
2018-05-04T03:27:44.147Z,0.00
2018-05-04T03:28:44.137Z,0.00
2018-05-04T03:29:44.128Z,0.00
2018-05-04T03:30:44.120Z,0.00
2018-05-04T03:31:44.111Z,0.00
2018-05-04T03:32:44.103Z,0.00
2018-05-04T03:33:44.095Z,0.00
2018-05-04T03:34:44.086Z,0.00
2018-05-04T03:35:44.078Z,0.00
2018-05-04T03:36:44.069Z,0.00
2018-05-04T03:37:44.065Z,0.00
2018-05-04T03:38:44.054Z,0.00
2018-05-04T03:39:44.045Z,0.00
2018-05-04T03:40:44.040Z,0.00
2018-05-04T03:41:44.029Z,0.00
2018-05-04T03:42:44.072Z,0.00
2018-05-04T03:43:44.012Z,0.00
2018-05-04T03:44:44.007Z,0.00
2018-05-04T03:45:43.998Z,0.00
2018-05-04T03:46:43.987Z,0.00
2018-05-04T03:47:43.982Z,0.00
2018-05-04T03:48:43.972Z,0.00
2018-05-04T03:49:43.962Z,0.00
2018-05-04T03:50:43.956Z,0.00
2018-05-04T03:51:43.948Z,4.00
2018-05-04T03:52:43.938Z,4.00
2018-05-04T03:53:43.931Z,0.00
2018-05-04T03:54:43.924Z,4.00
2018-05-04T03:55:43.915Z,4.00
2018-05-04T03:56:43.906Z,4.00
2018-05-04T03:57:43.898Z,4.00
2018-05-04T03:58:43.888Z,4.00
2018-05-04T03:59:43.879Z,8.00
2018-05-04T04:00:43.869Z,4.00
2018-05-04T04:01:43.861Z,8.00
2018-05-04T04:02:43.853Z,4.00
2018-05-04T04:03:43.849Z,4.00
2018-05-04T04:04:43.835Z,8.00
2018-05-04T04:05:43.827Z,8.00
2018-05-04T04:06:43.820Z,8.00
2018-05-04T04:07:43.822Z,12.00
2018-05-04T04:08:43.802Z,12.00
2018-05-04T04:09:43.790Z,12.00
2018-05-04T04:10:43.785Z,12.00
2018-05-04T04:11:43.773Z,16.00
2018-05-04T04:12:43.764Z,16.00
2018-05-04T04:13:43.755Z,16.00
2018-05-04T04:14:43.751Z,16.00
2018-05-04T04:15:43.741Z,20.00
2018-05-04T04:16:43.728Z,24.00
2018-05-04T04:17:43.719Z,24.00
2018-05-04T04:18:43.708Z,28.00
2018-05-04T04:19:43.703Z,32.00
2018-05-04T04:20:43.693Z,32.00
2018-05-04T04:21:43.682Z,36.00
2018-05-04T04:22:43.675Z,44.00
2018-05-04T04:23:43.669Z,44.00
2018-05-04T04:24:43.656Z,48.00
2018-05-04T04:25:43.651Z,52.00
2018-05-04T04:26:43.642Z,56.00
2018-05-04T04:27:43.630Z,60.00
2018-05-04T04:28:43.622Z,60.00
2018-05-04T04:29:43.613Z,60.00
2018-05-04T04:30:43.606Z,60.00
2018-05-04T04:31:43.595Z,64.00
2018-05-04T04:32:43.585Z,68.00
2018-05-04T04:33:43.590Z,68.00
2018-05-04T04:34:43.571Z,68.00
2018-05-04T04:35:43.560Z,68.00
2018-05-04T04:36:43.551Z,68.00
2018-05-04T04:37:43.547Z,68.00
2018-05-04T04:38:43.537Z,76.00
2018-05-04T04:39:43.530Z,76.00
2018-05-04T04:40:43.519Z,72.00
2018-05-04T04:41:43.510Z,72.00
2018-05-04T04:42:43.504Z,76.00
2018-05-04T04:43:43.493Z,72.00
2018-05-04T04:44:43.481Z,76.00
2018-05-04T04:45:43.476Z,76.00
2018-05-04T04:46:43.465Z,80.00
2018-05-04T04:47:43.455Z,84.00
2018-05-04T04:48:43.447Z,88.00
2018-05-04T04:49:43.436Z,88.00
2018-05-04T04:50:43.429Z,88.00
2018-05-04T04:51:43.511Z,92.00
2018-05-04T04:52:43.411Z,100.00
2018-05-04T04:53:43.403Z,104.00
2018-05-04T04:54:43.397Z,108.00
2018-05-04T04:55:43.385Z,116.00
2018-05-04T04:56:43.377Z,128.00
2018-05-04T04:57:43.369Z,148.00
2018-05-04T04:58:43.362Z,176.00
2018-05-04T04:59:43.349Z,192.00
2018-05-04T05:00:43.340Z,192.00
2018-05-04T05:01:43.398Z,188.00
2018-05-04T05:02:43.325Z,192.00
2018-05-04T05:03:43.317Z,192.00
2018-05-04T05:04:43.305Z,184.00
2018-05-04T05:05:43.297Z,188.00
2018-05-04T05:06:43.290Z,192.00
2018-05-04T05:07:43.279Z,192.00
2018-05-04T05:08:43.270Z,188.00
2018-05-04T05:09:43.265Z,184.00
2018-05-04T05:10:43.253Z,188.00
2018-05-04T05:11:43.242Z,196.00
2018-05-04T05:12:43.232Z,200.00
2018-05-04T05:13:43.224Z,204.00
2018-05-04T05:14:43.214Z,212.00
2018-05-04T05:15:43.207Z,224.00
2018-05-04T05:16:43.197Z,232.00
2018-05-04T05:17:43.189Z,232.00
2018-05-04T05:18:43.182Z,240.00
2018-05-04T05:19:43.177Z,260.00
2018-05-04T05:20:43.163Z,284.00
2018-05-04T05:21:43.162Z,308.00
2018-05-04T05:22:43.150Z,368.00
2018-05-04T05:23:43.222Z,388.00
2018-05-04T05:24:43.128Z,372.00
2018-05-04T05:25:43.121Z,364.00
2018-05-04T05:26:43.139Z,352.00
2018-05-04T05:27:43.103Z,348.00
2018-05-04T05:28:43.094Z,360.00
2018-05-04T05:29:43.082Z,384.00
2018-05-04T05:30:43.075Z,404.00
2018-05-04T05:31:43.073Z,424.00
2018-05-04T05:32:43.057Z,460.00
2018-05-04T05:33:43.050Z,496.00
2018-05-04T05:34:43.040Z,512.00
2018-05-04T05:35:43.032Z,528.00
2018-05-04T05:36:43.025Z,540.00
2018-05-04T05:37:43.017Z,540.00
2018-05-04T05:38:43.014Z,536.00
2018-05-04T05:39:42.998Z,532.00
2018-05-04T05:40:42.990Z,532.00
2018-05-04T05:41:42.980Z,564.00
2018-05-04T05:42:42.973Z,624.00
2018-05-04T05:43:42.963Z,688.00
2018-05-04T05:44:42.958Z,804.00
2018-05-04T05:45:42.943Z,892.00
2018-05-04T05:46:42.938Z,840.00
2018-05-04T05:47:42.927Z,772.00
2018-05-04T05:48:42.927Z,736.00
2018-05-04T05:49:42.916Z,692.00
2018-05-04T05:50:42.900Z,688.00
2018-05-04T05:51:42.894Z,680.00
2018-05-04T05:52:42.888Z,652.00
2018-05-04T05:53:42.874Z,652.00
2018-05-04T05:54:42.912Z,656.00
2018-05-04T05:55:42.860Z,640.00
2018-05-04T05:56:42.851Z,632.00
2018-05-04T05:57:42.841Z,632.00
2018-05-04T05:58:42.833Z,612.00
2018-05-04T05:59:42.826Z,608.00
2018-05-04T06:00:42.815Z,648.00
2018-05-04T06:01:42.811Z,688.00
2018-05-04T06:02:42.799Z,732.00
2018-05-04T06:03:42.791Z,816.00
2018-05-04T06:04:42.784Z,904.00
2018-05-04T06:05:42.771Z,956.00
2018-05-04T06:06:42.767Z,1008.00
2018-05-04T06:07:42.754Z,1116.00
2018-05-04T06:08:42.746Z,1172.00
2018-05-04T06:09:42.739Z,1236.00
2018-05-04T06:10:42.731Z,1280.00
2018-05-04T06:11:42.720Z,1324.00
2018-05-04T06:12:42.713Z,1284.00
2018-05-04T06:13:42.705Z,1180.00
2018-05-04T06:14:42.699Z,1096.00
2018-05-04T06:15:42.692Z,1040.00
2018-05-04T06:16:42.679Z,984.00
2018-05-04T06:17:42.671Z,1020.00
2018-05-04T06:18:42.667Z,980.00
2018-05-04T06:19:42.653Z,896.00
2018-05-04T06:20:42.650Z,812.00
2018-05-04T06:21:42.641Z,764.00
2018-05-04T06:22:42.630Z,720.00
2018-05-04T06:23:42.625Z,684.00
2018-05-04T06:24:42.621Z,660.00
2018-05-04T06:25:42.602Z,628.00
2018-05-04T06:26:42.596Z,608.00
2018-05-04T06:27:42.587Z,612.00
2018-05-04T06:28:42.580Z,644.00
2018-05-04T06:29:42.568Z,708.00
2018-05-04T06:30:42.562Z,748.00
2018-05-04T06:31:42.554Z,788.00
2018-05-04T06:32:42.547Z,804.00
2018-05-04T06:33:42.618Z,788.00
2018-05-04T06:34:42.532Z,736.00
2018-05-04T06:35:42.520Z,692.00
2018-05-04T06:36:42.513Z,676.00
2018-05-04T06:37:42.505Z,652.00
2018-05-04T06:38:42.495Z,612.00
2018-05-04T06:39:42.503Z,560.00
2018-05-04T06:40:42.478Z,524.00
2018-05-04T06:41:42.469Z,488.00
2018-05-04T06:42:42.464Z,464.00
2018-05-04T06:43:42.453Z,468.00
2018-05-04T06:44:42.446Z,456.00
2018-05-04T06:45:42.485Z,444.00
2018-05-04T06:46:42.429Z,428.00
2018-05-04T06:47:42.421Z,424.00
2018-05-04T06:48:42.464Z,424.00
2018-05-04T06:49:42.403Z,436.00
2018-05-04T06:50:42.393Z,456.00
2018-05-04T06:51:42.386Z,480.00
2018-05-04T06:52:42.376Z,480.00
2018-05-04T06:53:42.371Z,484.00
2018-05-04T06:54:42.362Z,504.00
2018-05-04T06:55:42.352Z,532.00
2018-05-04T06:56:42.351Z,548.00
2018-05-04T06:57:42.336Z,564.00
2018-05-04T06:58:42.327Z,556.00
2018-05-04T06:59:42.320Z,552.00
2018-05-04T07:00:42.310Z,536.00
2018-05-04T07:01:42.304Z,532.00
2018-05-04T07:02:42.292Z,512.00
2018-05-04T07:03:42.286Z,496.00
2018-05-04T07:04:42.280Z,508.00
2018-05-04T07:05:42.272Z,540.00
2018-05-04T07:06:42.262Z,588.00
2018-05-04T07:07:42.258Z,644.00
2018-05-04T07:08:42.245Z,692.00
2018-05-04T07:09:42.236Z,760.00
2018-05-04T07:10:42.226Z,836.00
2018-05-04T07:11:42.219Z,900.00
2018-05-04T07:12:42.211Z,932.00
2018-05-04T07:13:42.199Z,980.00
2018-05-04T07:14:42.193Z,1064.00
2018-05-04T07:15:42.184Z,1212.00
2018-05-04T07:16:42.174Z,1372.00
2018-05-04T07:17:42.172Z,1512.00
2018-05-04T07:18:42.159Z,1676.00
2018-05-04T07:19:42.156Z,1900.00
2018-05-04T07:20:42.143Z,2200.00
2018-05-04T07:21:42.137Z,2928.00
2018-05-04T07:22:42.128Z,3116.00
2018-05-04T07:23:42.116Z,3292.00
2018-05-04T07:24:42.108Z,3140.00
2018-05-04T07:25:42.102Z,2788.00
2018-05-04T07:26:42.093Z,2652.00
2018-05-04T07:27:42.085Z,2496.00
2018-05-04T07:28:42.096Z,2268.00
2018-05-04T07:29:42.071Z,1916.00
2018-05-04T07:30:42.063Z,1724.00
2018-05-04T07:31:42.055Z,1608.00
2018-05-04T07:32:42.048Z,1540.00
2018-05-04T07:33:42.039Z,1560.00
2018-05-04T07:34:42.036Z,1712.00
2018-05-04T07:35:42.026Z,1860.00
2018-05-04T07:36:42.018Z,1924.00
2018-05-04T07:37:42.009Z,1968.00
2018-05-04T07:38:42.008Z,1872.00
2018-05-04T07:39:41.995Z,1832.00
2018-05-04T07:40:41.995Z,1704.00
2018-05-04T07:41:41.981Z,1604.00
2018-05-04T07:42:41.976Z,1528.00
2018-05-04T07:43:41.965Z,1488.00
2018-05-04T07:44:41.960Z,1464.00
2018-05-04T07:45:41.952Z,1420.00
2018-05-04T07:46:41.946Z,1368.00
2018-05-04T07:47:41.939Z,1336.00
2018-05-04T07:48:41.977Z,1312.00
2018-05-04T07:49:41.921Z,1268.00
2018-05-04T07:50:41.915Z,1248.00
2018-05-04T07:51:41.911Z,1344.00
2018-05-04T07:52:41.904Z,1436.00
2018-05-04T07:53:41.894Z,1584.00
2018-05-04T07:54:41.885Z,1728.00
2018-05-04T07:55:41.879Z,1932.00
2018-05-04T07:56:41.873Z,1996.00
2018-05-04T07:57:41.865Z,2016.00
2018-05-04T07:58:41.858Z,2112.00
2018-05-04T07:59:41.853Z,2296.00
2018-05-04T08:00:41.848Z,2352.00
2018-05-04T08:01:41.837Z,2148.00
2018-05-04T08:02:41.830Z,1940.00
2018-05-04T08:03:41.824Z,2108.00
2018-05-04T08:04:41.814Z,1980.00
2018-05-04T08:05:41.808Z,2080.00
2018-05-04T08:06:41.802Z,2184.00
2018-05-04T08:07:41.799Z,2340.00
2018-05-04T08:08:41.788Z,2084.00
2018-05-04T08:09:41.784Z,2088.00
2018-05-04T08:10:41.777Z,1944.00
2018-05-04T08:11:41.771Z,1952.00
2018-05-04T08:12:41.762Z,1864.00
2018-05-04T08:13:41.846Z,1664.00
2018-05-04T08:14:41.752Z,1604.00
2018-05-04T08:15:41.743Z,1468.00
2018-05-04T08:16:41.733Z,1428.00
2018-05-04T08:17:41.728Z,1440.00
2018-05-04T08:18:41.722Z,1456.00
2018-05-04T08:19:41.714Z,1448.00
2018-05-04T08:20:41.709Z,1460.00
2018-05-04T08:21:41.705Z,1532.00
2018-05-04T08:22:41.700Z,1632.00
2018-05-04T08:23:41.692Z,1704.00
2018-05-04T08:24:41.684Z,1704.00
2018-05-04T08:25:41.675Z,1588.00
2018-05-04T08:26:41.667Z,1576.00
2018-05-04T08:27:41.661Z,1576.00
2018-05-04T08:28:41.654Z,1572.00
2018-05-04T08:29:41.655Z,1548.00
2018-05-04T08:30:41.647Z,1584.00
2018-05-04T08:31:41.634Z,1684.00
2018-05-04T08:32:41.634Z,1824.00
2018-05-04T08:33:41.725Z,2024.00
2018-05-04T08:34:41.611Z,2388.00
2018-05-04T08:35:41.606Z,2896.00
2018-05-04T08:36:41.603Z,3360.00
2018-05-04T08:37:41.596Z,3120.00
2018-05-04T08:38:41.587Z,2872.00
2018-05-04T08:39:41.581Z,2708.00
2018-05-04T08:40:41.691Z,2744.00
2018-05-04T08:41:41.565Z,2752.00
2018-05-04T08:42:41.563Z,2652.00
2018-05-04T08:43:41.555Z,2616.00
2018-05-04T08:44:41.548Z,2612.00
2018-05-04T08:45:41.540Z,2536.00
2018-05-04T08:46:41.540Z,2580.00
2018-05-04T08:47:41.531Z,2480.00
2018-05-04T08:48:41.526Z,2232.00
2018-05-04T08:49:41.519Z,2172.00
2018-05-04T08:50:41.515Z,2312.00
2018-05-04T08:51:41.504Z,2476.00
2018-05-04T08:52:41.500Z,2516.00
2018-05-04T08:53:41.495Z,2348.00
2018-05-04T08:54:41.485Z,2440.00
2018-05-04T08:55:41.483Z,2548.00
2018-05-04T08:56:41.476Z,2496.00
2018-05-04T08:57:41.472Z,2576.00
2018-05-04T08:58:41.463Z,2972.00
2018-05-04T08:59:41.456Z,2796.00
2018-05-04T09:00:41.452Z,2648.00
2018-05-04T09:01:41.444Z,2616.00
2018-05-04T09:02:41.442Z,2660.00
2018-05-04T09:03:41.435Z,3336.00
2018-05-04T09:04:41.432Z,3152.00
2018-05-04T09:05:41.504Z,3120.00
2018-05-04T09:06:41.419Z,3532.00
2018-05-04T09:07:41.412Z,2872.00
2018-05-04T09:08:41.406Z,2876.00
2018-05-04T09:09:41.402Z,3380.00
2018-05-04T09:10:41.396Z,3436.00
2018-05-04T09:11:41.389Z,3552.00
2018-05-04T09:12:41.405Z,3372.00
2018-05-04T09:13:41.378Z,3360.00
2018-05-04T09:14:41.375Z,3328.00
2018-05-04T09:15:41.374Z,3016.00
2018-05-04T09:16:41.361Z,3072.00
2018-05-04T09:17:41.364Z,3436.00
2018-05-04T09:18:41.354Z,3436.00
2018-05-04T09:19:41.348Z,3064.00
2018-05-04T09:20:41.344Z,2752.00
2018-05-04T09:21:41.337Z,2656.00
2018-05-04T09:22:41.330Z,2692.00
2018-05-04T09:23:41.328Z,2704.00
2018-05-04T09:24:41.319Z,2708.00
2018-05-04T09:25:41.318Z,2692.00
2018-05-04T09:26:41.313Z,2440.00
2018-05-04T09:27:41.306Z,2388.00
2018-05-04T09:28:41.299Z,2372.00
2018-05-04T09:29:41.296Z,2332.00
2018-05-04T09:30:41.380Z,2276.00
2018-05-04T09:31:41.286Z,2124.00
2018-05-04T09:32:41.278Z,2068.00
2018-05-04T09:33:41.275Z,2012.00
2018-05-04T09:34:41.269Z,1928.00
2018-05-04T09:35:41.269Z,1952.00
2018-05-04T09:36:41.260Z,2044.00
2018-05-04T09:37:41.254Z,2112.00
2018-05-04T09:38:41.250Z,2068.00
2018-05-04T09:39:41.243Z,2000.00
2018-05-04T09:40:41.237Z,1892.00
2018-05-04T09:41:41.233Z,1836.00
2018-05-04T09:42:41.226Z,1812.00
2018-05-04T09:43:41.229Z,1780.00
2018-05-04T09:44:41.217Z,1724.00
2018-05-04T09:45:41.211Z,1696.00
2018-05-04T09:46:41.205Z,1668.00
2018-05-04T09:47:41.201Z,1612.00
2018-05-04T09:48:41.192Z,1652.00
2018-05-04T09:49:41.191Z,1676.00
2018-05-04T09:50:41.184Z,1696.00
2018-05-04T09:51:41.179Z,1744.00
2018-05-04T09:52:41.172Z,1808.00
2018-05-04T09:53:41.169Z,1812.00
2018-05-04T09:54:41.162Z,1888.00
2018-05-04T09:55:41.156Z,1976.00
2018-05-04T09:56:41.148Z,2112.00
2018-05-04T09:57:41.144Z,2264.00
2018-05-04T09:58:41.142Z,2404.00
2018-05-04T09:59:41.132Z,2372.00
2018-05-04T10:00:41.127Z,2408.00
2018-05-04T10:01:41.121Z,2460.00
2018-05-04T10:02:41.117Z,2536.00
2018-05-04T10:03:41.109Z,2588.00
2018-05-04T10:04:41.107Z,2652.00
2018-05-04T10:05:41.104Z,2620.00
2018-05-04T10:06:41.095Z,2580.00
2018-05-04T10:07:41.090Z,2576.00
2018-05-04T10:08:41.084Z,2568.00
2018-05-04T10:09:41.076Z,2544.00
2018-05-04T10:10:41.072Z,2488.00
2018-05-04T10:11:41.065Z,2300.00
2018-05-04T10:12:41.060Z,2156.00
2018-05-04T10:13:41.054Z,2124.00
2018-05-04T10:14:41.049Z,2076.00
2018-05-04T10:15:41.045Z,2032.00
2018-05-04T10:16:41.038Z,2068.00
2018-05-04T10:17:41.032Z,2168.00
2018-05-04T10:18:41.026Z,2236.00
2018-05-04T10:19:41.026Z,2164.00
2018-05-04T10:20:41.017Z,2088.00
2018-05-04T10:21:41.015Z,2020.00
2018-05-04T10:22:41.006Z,1988.00
2018-05-04T10:23:41.003Z,2004.00
2018-05-04T10:24:40.993Z,1976.00
2018-05-04T10:25:40.989Z,1904.00
2018-05-04T10:26:40.983Z,1912.00
2018-05-04T10:27:40.978Z,1904.00
2018-05-04T10:28:40.972Z,1964.00
2018-05-04T10:29:40.968Z,2048.00
2018-05-04T10:30:41.017Z,2212.00
2018-05-04T10:31:40.957Z,2344.00
2018-05-04T10:32:40.951Z,2380.00
2018-05-04T10:33:40.943Z,2360.00
2018-05-04T10:34:40.939Z,2356.00
2018-05-04T10:35:40.937Z,2500.00
2018-05-04T10:36:40.936Z,2620.00
2018-05-04T10:37:40.923Z,2708.00
2018-05-04T10:38:40.934Z,2740.00
2018-05-04T10:39:40.911Z,2784.00
2018-05-04T10:40:40.904Z,2888.00
2018-05-04T10:41:40.901Z,2956.00
2018-05-04T10:42:40.903Z,2960.00
2018-05-04T10:43:40.895Z,2928.00
2018-05-04T10:44:40.886Z,2764.00
2018-05-04T10:45:40.881Z,2604.00
2018-05-04T10:46:40.874Z,2608.00
2018-05-04T10:47:40.871Z,2608.00
2018-05-04T10:48:40.863Z,2544.00
2018-05-04T10:49:40.859Z,2388.00
2018-05-04T10:50:40.854Z,2268.00
2018-05-04T10:51:40.849Z,2196.00
2018-05-04T10:52:40.846Z,2104.00
2018-05-04T10:53:40.840Z,2056.00
2018-05-04T10:54:40.835Z,2096.00
2018-05-04T10:55:40.830Z,2072.00
2018-05-04T10:56:40.827Z,1964.00
2018-05-04T10:57:40.816Z,1896.00
2018-05-04T10:58:40.818Z,1820.00
2018-05-04T10:59:40.814Z,1856.00
2018-05-04T11:00:40.805Z,1860.00
2018-05-04T11:01:40.801Z,1864.00
2018-05-04T11:02:40.794Z,1820.00
2018-05-04T11:03:40.789Z,1768.00
2018-05-04T11:04:40.787Z,1772.00
2018-05-04T11:05:40.781Z,1736.00
2018-05-04T11:06:40.773Z,1692.00
2018-05-04T11:07:40.774Z,1672.00
2018-05-04T11:08:40.765Z,1700.00
2018-05-04T11:09:40.765Z,1608.00
2018-05-04T11:10:40.755Z,1532.00
2018-05-04T11:11:40.747Z,1552.00
2018-05-04T11:12:40.749Z,1492.00
2018-05-04T11:13:40.740Z,1396.00
2018-05-04T11:14:40.733Z,1340.00
2018-05-04T11:15:40.729Z,1276.00
2018-05-04T11:16:40.725Z,1256.00
2018-05-04T11:17:40.719Z,1276.00
2018-05-04T11:18:40.711Z,1272.00
2018-05-04T11:19:40.708Z,1236.00
2018-05-04T11:20:40.700Z,1256.00
2018-05-04T11:21:40.695Z,1296.00
2018-05-04T11:22:40.699Z,1384.00
2018-05-04T11:23:40.689Z,1524.00
2018-05-04T11:24:40.681Z,1628.00
2018-05-04T11:25:40.677Z,1672.00
2018-05-04T11:26:40.670Z,1816.00
2018-05-04T11:27:40.666Z,1812.00
2018-05-04T11:28:40.660Z,1844.00
2018-05-04T11:29:40.652Z,1884.00
2018-05-04T11:30:40.647Z,1888.00
2018-05-04T11:31:40.642Z,1844.00
2018-05-04T11:32:40.640Z,1848.00
2018-05-04T11:33:40.629Z,1812.00
2018-05-04T11:34:40.626Z,1712.00
2018-05-04T11:35:40.619Z,1612.00
2018-05-04T11:36:40.613Z,1556.00
2018-05-04T11:37:40.610Z,1536.00
2018-05-04T11:38:40.604Z,1516.00
2018-05-04T11:39:40.600Z,1548.00
2018-05-04T11:40:40.597Z,1576.00
2018-05-04T11:41:40.587Z,1540.00
2018-05-04T11:42:40.581Z,1476.00
2018-05-04T11:43:40.580Z,1440.00
2018-05-04T11:44:40.573Z,1464.00
2018-05-04T11:45:40.564Z,1476.00
2018-05-04T11:46:40.559Z,1488.00
2018-05-04T11:47:40.565Z,1544.00
2018-05-04T11:48:40.548Z,1584.00
2018-05-04T11:49:40.547Z,1620.00
2018-05-04T11:50:40.539Z,1652.00
2018-05-04T11:51:40.536Z,1756.00
2018-05-04T11:52:40.529Z,1764.00
2018-05-04T11:53:40.523Z,1780.00
2018-05-04T11:54:40.521Z,1820.00
2018-05-04T11:55:40.510Z,1764.00
2018-05-04T11:56:40.503Z,1800.00
2018-05-04T11:57:40.497Z,1868.00
2018-05-04T11:58:40.495Z,2032.00
2018-05-04T11:59:40.493Z,2272.00
2018-05-04T12:00:40.486Z,2528.00
2018-05-04T12:01:40.478Z,2720.00
2018-05-04T12:02:40.470Z,2836.00
2018-05-04T12:03:40.474Z,2904.00
2018-05-04T12:04:40.461Z,2924.00
2018-05-04T12:05:40.456Z,2928.00
2018-05-04T12:06:40.451Z,2936.00
2018-05-04T12:07:40.447Z,3016.00
2018-05-04T12:08:40.441Z,3032.00
2018-05-04T12:09:40.441Z,3004.00
2018-05-04T12:10:40.433Z,3020.00
2018-05-04T12:11:40.429Z,3028.00
2018-05-04T12:12:40.422Z,3108.00
2018-05-04T12:13:40.419Z,3156.00
2018-05-04T12:14:40.421Z,3180.00
2018-05-04T12:15:40.411Z,3180.00
2018-05-04T12:16:40.469Z,3156.00
2018-05-04T12:17:40.403Z,3144.00
2018-05-04T12:18:40.399Z,3164.00
2018-05-04T12:19:40.391Z,3176.00
2018-05-04T12:20:40.386Z,3236.00
2018-05-04T12:21:40.388Z,3272.00
2018-05-04T12:22:40.394Z,3272.00
2018-05-04T12:23:40.374Z,3256.00
2018-05-04T12:24:40.369Z,3584.00
2018-05-04T12:25:40.364Z,3324.00
2018-05-04T12:26:40.360Z,3612.00
2018-05-04T12:27:40.359Z,3680.00
2018-05-04T12:28:40.353Z,3448.00
2018-05-04T12:29:40.350Z,3336.00
2018-05-04T12:30:40.345Z,3396.00
2018-05-04T12:31:40.338Z,3504.00
2018-05-04T12:32:40.335Z,3356.00
2018-05-04T12:33:40.332Z,3092.00
2018-05-04T12:34:40.328Z,3076.00